DLH6PM EDDF-EHAM
Flight info
| Callsign | DLH6PM |
|---|---|
| Flight time | N/A |
| Altitude | 24000 |
| Route | MARUN8M MARUN Y152 ARPEG Z850 ABILU DCT NORKU |
| Aircraft | A321/M-SDE3FGHIRWY/LB1 |
Departure
| Time | 2026-04-17 12:20 |
|---|---|
| Airport | Frankfurt Main Airport (EDDF) |
Arrival
| Time | N/A |
|---|---|
| Airport | Amsterdam Airport Schiphol (EHAM) |
| Time | Latitude | Longitude | Altitude | Speed | Heading |
|---|---|---|---|---|---|
| 2026-04-17 12:10 | 50.04914 | 8.58865 | 350 ft | 0 kts | 160° |
| 2026-04-17 12:11 | 50.04917 | 8.58863 | 355 ft | 3 kts | 160° |
| 2026-04-17 12:12 | 50.04955 | 8.58855 | 348 ft | 3 kts | 207° |
| 2026-04-17 12:12 | 50.04971 | 8.58873 | 355 ft | 3 kts | 238° |
| 2026-04-17 12:12 | 50.04976 | 8.58885 | 356 ft | 0 kts | 243° |
| 2026-04-17 12:14 | 50.04975 | 8.58884 | 346 ft | 1 kts | 243° |
| 2026-04-17 12:14 | 50.04975 | 8.58882 | 346 ft | 0 kts | 243° |
| 2026-04-17 12:15 | 50.04974 | 8.58881 | 353 ft | 1 kts | 243° |
| 2026-04-17 12:15 | 50.04969 | 8.58866 | 356 ft | 0 kts | 243° |
| 2026-04-17 12:15 | 50.04967 | 8.58857 | 353 ft | 5 kts | 248° |
| 2026-04-17 12:16 | 50.04942 | 8.58758 | 354 ft | 12 kts | 249° |
| 2026-04-17 12:16 | 50.04910 | 8.58690 | 349 ft | 9 kts | 204° |
| 2026-04-17 12:16 | 50.04861 | 8.58699 | 353 ft | 7 kts | 159° |
| 2026-04-17 12:16 | 50.04807 | 8.58730 | 351 ft | 10 kts | 160° |
| 2026-04-17 12:17 | 50.04794 | 8.58738 | 351 ft | 0 kts | 160° |
| 2026-04-17 12:18 | 50.04782 | 8.58744 | 348 ft | 5 kts | 160° |
| 2026-04-17 12:18 | 50.04753 | 8.58760 | 351 ft | 4 kts | 162° |
| 2026-04-17 12:18 | 50.04712 | 8.58767 | 346 ft | 9 kts | 182° |
| 2026-04-17 12:19 | 50.04636 | 8.58754 | 346 ft | 13 kts | 189° |
| 2026-04-17 12:19 | 50.04551 | 8.58665 | 351 ft | 13 kts | 217° |
| 2026-04-17 12:19 | 50.04484 | 8.58565 | 352 ft | 10 kts | 243° |
| 2026-04-17 12:19 | 50.04478 | 8.58546 | 350 ft | 0 kts | 248° |
| 2026-04-17 12:20 | 50.04463 | 8.58486 | 353 ft | 30 kts | 249° |
| 2026-04-17 12:20 | 50.04274 | 8.57698 | 349 ft | 121 kts | 250° |
| 2026-04-17 12:20 | 50.03891 | 8.56112 | 419 ft | 184 kts | 249° |
| 2026-04-17 12:20 | 50.03429 | 8.54184 | 1189 ft | 197 kts | 250° |
| 2026-04-17 12:21 | 50.02949 | 8.52163 | 2223 ft | 200 kts | 249° |
| 2026-04-17 12:21 | 50.02335 | 8.50226 | 2924 ft | 206 kts | 226° |
| 2026-04-17 12:21 | 50.01118 | 8.49106 | 3765 ft | 208 kts | 195° |
| 2026-04-17 12:21 | 49.99720 | 8.48541 | 4598 ft | 208 kts | 194° |
| 2026-04-17 12:22 | 49.98308 | 8.47975 | 5393 ft | 210 kts | 195° |
| 2026-04-17 12:22 | 49.96902 | 8.47406 | 6151 ft | 212 kts | 195° |
| 2026-04-17 12:22 | 49.95447 | 8.46803 | 6842 ft | 222 kts | 195° |
| 2026-04-17 12:22 | 49.93890 | 8.46104 | 7274 ft | 243 kts | 197° |
| 2026-04-17 12:23 | 49.92243 | 8.45313 | 7919 ft | 251 kts | 201° |
| 2026-04-17 12:23 | 49.90825 | 8.43743 | 8638 ft | 256 kts | 233° |
| 2026-04-17 12:23 | 49.90138 | 8.41210 | 9391 ft | 260 kts | 265° |
| 2026-04-17 12:23 | 49.90434 | 8.38456 | 10152 ft | 264 kts | 297° |